sensor_id;sensor_type;location;lat;lon;timestamp;P1;durP1;ratioP1;P2;durP2;ratioP2
76023;SDS011;64719;52.124;6.226;2023-05-10T00:00:46;17.33;;;7.63;;
76023;SDS011;64719;52.124;6.226;2023-05-10T00:03:12;18.05;;;7.82;;
76023;SDS011;64719;52.124;6.226;2023-05-10T00:05:39;17.23;;;7.68;;
76023;SDS011;64719;52.124;6.226;2023-05-10T00:08:05;18.38;;;7.85;;
76023;SDS011;64719;52.124;6.226;2023-05-10T00:10:32;23.55;;;7.63;;
76023;SDS011;64719;52.124;6.226;2023-05-10T00:12:59;13.68;;;6.97;;
76023;SDS011;64719;52.124;6.226;2023-05-10T00:15:26;14.90;;;7.60;;
76023;SDS011;64719;52.124;6.226;2023-05-10T00:17:53;21.38;;;8.23;;
76023;SDS011;64719;52.124;6.226;2023-05-10T00:20:19;16.20;;;7.85;;
76023;SDS011;64719;52.124;6.226;2023-05-10T00:22:46;18.77;;;7.95;;
76023;SDS011;64719;52.124;6.226;2023-05-10T00:25:12;20.02;;;8.13;;
76023;SDS011;64719;52.124;6.226;2023-05-10T00:27:39;19.67;;;7.88;;
76023;SDS011;64719;52.124;6.226;2023-05-10T00:30:06;19.08;;;8.10;;
76023;SDS011;64719;52.124;6.226;2023-05-10T00:32:34;22.80;;;8.20;;
76023;SDS011;64719;52.124;6.226;2023-05-10T00:35:01;22.85;;;8.50;;
76023;SDS011;64719;52.124;6.226;2023-05-10T00:37:27;19.70;;;8.32;;
76023;SDS011;64719;52.124;6.226;2023-05-10T00:39:54;21.65;;;9.25;;
76023;SDS011;64719;52.124;6.226;2023-05-10T00:42:20;23.80;;;9.65;;
76023;SDS011;64719;52.124;6.226;2023-05-10T00:44:47;23.27;;;9.48;;
76023;SDS011;64719;52.124;6.226;2023-05-10T00:47:14;22.23;;;9.18;;
76023;SDS011;64719;52.124;6.226;2023-05-10T00:49:43;26.10;;;10.20;;
76023;SDS011;64719;52.124;6.226;2023-05-10T00:52:10;32.50;;;10.70;;
76023;SDS011;64719;52.124;6.226;2023-05-10T00:54:36;30.92;;;10.70;;
76023;SDS011;64719;52.124;6.226;2023-05-10T00:57:03;27.08;;;10.40;;
76023;SDS011;64719;52.124;6.226;2023-05-10T00:59:30;32.20;;;11.90;;
76023;SDS011;64719;52.124;6.226;2023-05-10T01:01:57;27.55;;;10.65;;
76023;SDS011;64719;52.124;6.226;2023-05-10T01:04:24;29.83;;;10.73;;
76023;SDS011;64719;52.124;6.226;2023-05-10T01:06:52;36.75;;;11.45;;
76023;SDS011;64719;52.124;6.226;2023-05-10T01:09:19;33.97;;;10.90;;
76023;SDS011;64719;52.124;6.226;2023-05-10T01:11:46;31.08;;;11.40;;
76023;SDS011;64719;52.124;6.226;2023-05-10T01:14:13;34.92;;;11.18;;
76023;SDS011;64719;52.124;6.226;2023-05-10T01:16:40;32.85;;;10.82;;
76023;SDS011;64719;52.124;6.226;2023-05-10T01:19:10;34.33;;;12.40;;
76023;SDS011;64719;52.124;6.226;2023-05-10T01:21:44;34.15;;;11.43;;
76023;SDS011;64719;52.124;6.226;2023-05-10T01:27:25;34.25;;;11.20;;
76023;SDS011;64719;52.124;6.226;2023-05-10T01:30:09;33.72;;;11.13;;
76023;SDS011;64719;52.124;6.226;2023-05-10T01:33:02;32.60;;;11.60;;
76023;SDS011;64719;52.124;6.226;2023-05-10T01:35:39;37.53;;;12.15;;
76023;SDS011;64719;52.124;6.226;2023-05-10T01:38:13;37.90;;;12.20;;
76023;SDS011;64719;52.124;6.226;2023-05-10T01:40:48;33.15;;;12.05;;
76023;SDS011;64719;52.124;6.226;2023-05-10T01:43:22;34.90;;;11.80;;
76023;SDS011;64719;52.124;6.226;2023-05-10T01:45:59;36.05;;;13.13;;
76023;SDS011;64719;52.124;6.226;2023-05-10T01:48:36;44.35;;;14.15;;
76023;SDS011;64719;52.124;6.226;2023-05-10T01:51:08;43.60;;;13.93;;
76023;SDS011;64719;52.124;6.226;2023-05-10T01:53:36;42.53;;;14.38;;
76023;SDS011;64719;52.124;6.226;2023-05-10T01:56:04;37.55;;;12.98;;
76023;SDS011;64719;52.124;6.226;2023-05-10T01:58:34;50.40;;;14.98;;
76023;SDS011;64719;52.124;6.226;2023-05-10T02:01:05;57.67;;;15.70;;
76023;SDS011;64719;52.124;6.226;2023-05-10T02:03:34;50.35;;;15.85;;
76023;SDS011;64719;52.124;6.226;2023-05-10T02:06:04;56.15;;;16.25;;
76023;SDS011;64719;52.124;6.226;2023-05-10T02:08:33;54.53;;;16.23;;
76023;SDS011;64719;52.124;6.226;2023-05-10T02:11:06;60.20;;;16.80;;
76023;SDS011;64719;52.124;6.226;2023-05-10T02:13:33;62.70;;;17.50;;
76023;SDS011;64719;52.124;6.226;2023-05-10T02:16:04;60.45;;;16.95;;
76023;SDS011;64719;52.124;6.226;2023-05-10T02:18:31;58.38;;;17.88;;
76023;SDS011;64719;52.124;6.226;2023-05-10T02:21:01;63.58;;;17.50;;
76023;SDS011;64719;52.124;6.226;2023-05-10T02:23:28;66.90;;;17.70;;
76023;SDS011;64719;52.124;6.226;2023-05-10T02:25:56;64.90;;;17.80;;
76023;SDS011;64719;52.124;6.226;2023-05-10T02:28:24;60.20;;;18.92;;
76023;SDS011;64719;52.124;6.226;2023-05-10T02:30:52;62.40;;;18.98;;
76023;SDS011;64719;52.124;6.226;2023-05-10T02:33:20;64.65;;;18.98;;
76023;SDS011;64719;52.124;6.226;2023-05-10T02:35:48;76.28;;;19.08;;
76023;SDS011;64719;52.124;6.226;2023-05-10T02:38:17;71.35;;;18.27;;
76023;SDS011;64719;52.124;6.226;2023-05-10T02:40:46;70.10;;;18.17;;
76023;SDS011;64719;52.124;6.226;2023-05-10T02:43:14;74.35;;;20.05;;
76023;SDS011;64719;52.124;6.226;2023-05-10T02:45:43;70.72;;;19.92;;
76023;SDS011;64719;52.124;6.226;2023-05-10T02:48:13;72.53;;;19.30;;
76023;SDS011;64719;52.124;6.226;2023-05-10T02:50:39;75.00;;;19.52;;
76023;SDS011;64719;52.124;6.226;2023-05-10T02:53:10;75.57;;;19.33;;
76023;SDS011;64719;52.124;6.226;2023-05-10T02:55:42;74.25;;;19.38;;
76023;SDS011;64719;52.124;6.226;2023-05-10T02:58:15;79.90;;;21.25;;
76023;SDS011;64719;52.124;6.226;2023-05-10T03:00:44;86.53;;;21.88;;
76023;SDS011;64719;52.124;6.226;2023-05-10T03:03:11;89.95;;;21.90;;
76023;SDS011;64719;52.124;6.226;2023-05-10T03:05:37;93.65;;;22.80;;
76023;SDS011;64719;52.124;6.226;2023-05-10T03:08:04;85.32;;;22.30;;
76023;SDS011;64719;52.124;6.226;2023-05-10T03:10:31;100.40;;;25.45;;
76023;SDS011;64719;52.124;6.226;2023-05-10T03:13:10;94.43;;;22.00;;
76023;SDS011;64719;52.124;6.226;2023-05-10T03:15:45;91.82;;;23.58;;
76023;SDS011;64719;52.124;6.226;2023-05-10T03:20:47;97.45;;;25.05;;
76023;SDS011;64719;52.124;6.226;2023-05-10T03:23:20;103.60;;;25.63;;
76023;SDS011;64719;52.124;6.226;2023-05-10T03:25:49;102.63;;;24.30;;
76023;SDS011;64719;52.124;6.226;2023-05-10T03:28:18;106.00;;;27.33;;
76023;SDS011;64719;52.124;6.226;2023-05-10T03:30:46;103.72;;;26.45;;
76023;SDS011;64719;52.124;6.226;2023-05-10T03:33:13;104.22;;;24.48;;
76023;SDS011;64719;52.124;6.226;2023-05-10T03:35:40;112.25;;;28.10;;
76023;SDS011;64719;52.124;6.226;2023-05-10T03:38:06;101.85;;;26.17;;
76023;SDS011;64719;52.124;6.226;2023-05-10T03:40:33;111.47;;;25.00;;
76023;SDS011;64719;52.124;6.226;2023-05-10T03:42:59;102.75;;;26.00;;
76023;SDS011;64719;52.124;6.226;2023-05-10T03:45:27;105.45;;;27.58;;
76023;SDS011;64719;52.124;6.226;2023-05-10T03:47:53;108.07;;;27.48;;
76023;SDS011;64719;52.124;6.226;2023-05-10T03:50:20;104.45;;;26.63;;
76023;SDS011;64719;52.124;6.226;2023-05-10T03:52:47;106.55;;;28.90;;
76023;SDS011;64719;52.124;6.226;2023-05-10T03:55:13;107.28;;;27.75;;
76023;SDS011;64719;52.124;6.226;2023-05-10T03:57:40;100.68;;;25.52;;
76023;SDS011;64719;52.124;6.226;2023-05-10T04:00:07;105.63;;;26.33;;
76023;SDS011;64719;52.124;6.226;2023-05-10T04:02:35;104.93;;;27.48;;
76023;SDS011;64719;52.124;6.226;2023-05-10T04:05:02;118.55;;;27.73;;
76023;SDS011;64719;52.124;6.226;2023-05-10T04:07:29;100.35;;;26.92;;
76023;SDS011;64719;52.124;6.226;2023-05-10T04:09:55;96.88;;;26.35;;
76023;SDS011;64719;52.124;6.226;2023-05-10T04:12:22;102.10;;;26.60;;
76023;SDS011;64719;52.124;6.226;2023-05-10T04:14:48;99.93;;;25.48;;
76023;SDS011;64719;52.124;6.226;2023-05-10T04:17:16;96.35;;;25.40;;
76023;SDS011;64719;52.124;6.226;2023-05-10T04:19:43;109.60;;;27.27;;
76023;SDS011;64719;52.124;6.226;2023-05-10T04:22:10;100.00;;;25.75;;
76023;SDS011;64719;52.124;6.226;2023-05-10T04:24:36;98.55;;;26.90;;
76023;SDS011;64719;52.124;6.226;2023-05-10T04:27:03;100.63;;;27.75;;
76023;SDS011;64719;52.124;6.226;2023-05-10T04:29:29;104.30;;;25.70;;
76023;SDS011;64719;52.124;6.226;2023-05-10T04:31:56;83.35;;;23.48;;
76023;SDS011;64719;52.124;6.226;2023-05-10T04:34:22;85.78;;;25.33;;
76023;SDS011;64719;52.124;6.226;2023-05-10T04:36:50;84.88;;;25.65;;
76023;SDS011;64719;52.124;6.226;2023-05-10T04:39:17;83.70;;;24.95;;
76023;SDS011;64719;52.124;6.226;2023-05-10T04:41:43;86.53;;;24.40;;
76023;SDS011;64719;52.124;6.226;2023-05-10T04:44:10;79.78;;;23.33;;
76023;SDS011;64719;52.124;6.226;2023-05-10T04:46:36;72.75;;;22.45;;
76023;SDS011;64719;52.124;6.226;2023-05-10T04:49:03;80.28;;;23.58;;
76023;SDS011;64719;52.124;6.226;2023-05-10T04:51:29;76.22;;;23.80;;
76023;SDS011;64719;52.124;6.226;2023-05-10T04:53:58;73.57;;;23.50;;
76023;SDS011;64719;52.124;6.226;2023-05-10T04:56:24;78.07;;;22.98;;
76023;SDS011;64719;52.124;6.226;2023-05-10T04:58:50;74.57;;;21.77;;
76023;SDS011;64719;52.124;6.226;2023-05-10T05:01:17;74.13;;;23.83;;
76023;SDS011;64719;52.124;6.226;2023-05-10T05:03:43;77.13;;;24.92;;
76023;SDS011;64719;52.124;6.226;2023-05-10T05:06:10;82.05;;;23.15;;
76023;SDS011;64719;52.124;6.226;2023-05-10T05:08:36;74.28;;;23.85;;
76023;SDS011;64719;52.124;6.226;2023-05-10T05:11:04;78.72;;;22.15;;
76023;SDS011;64719;52.124;6.226;2023-05-10T05:13:31;81.90;;;24.27;;
76023;SDS011;64719;52.124;6.226;2023-05-10T05:15:59;74.05;;;24.48;;
76023;SDS011;64719;52.124;6.226;2023-05-10T05:18:26;68.63;;;23.30;;
76023;SDS011;64719;52.124;6.226;2023-05-10T05:20:53;82.13;;;25.45;;
76023;SDS011;64719;52.124;6.226;2023-05-10T05:23:19;76.30;;;24.80;;
76023;SDS011;64719;52.124;6.226;2023-05-10T05:25:49;83.13;;;25.77;;
76023;SDS011;64719;52.124;6.226;2023-05-10T05:28:18;83.10;;;24.33;;
76023;SDS011;64719;52.124;6.226;2023-05-10T05:30:45;81.63;;;25.48;;
76023;SDS011;64719;52.124;6.226;2023-05-10T05:33:12;77.50;;;24.38;;
76023;SDS011;64719;52.124;6.226;2023-05-10T05:35:40;75.38;;;25.50;;
76023;SDS011;64719;52.124;6.226;2023-05-10T05:38:07;85.05;;;27.33;;
76023;SDS011;64719;52.124;6.226;2023-05-10T05:40:34;79.55;;;25.50;;
76023;SDS011;64719;52.124;6.226;2023-05-10T05:43:00;84.25;;;26.10;;
76023;SDS011;64719;52.124;6.226;2023-05-10T05:45:28;79.25;;;24.60;;
76023;SDS011;64719;52.124;6.226;2023-05-10T05:47:55;77.28;;;25.48;;
76023;SDS011;64719;52.124;6.226;2023-05-10T05:50:21;78.07;;;26.77;;
76023;SDS011;64719;52.124;6.226;2023-05-10T05:52:48;77.25;;;25.67;;
76023;SDS011;64719;52.124;6.226;2023-05-10T05:55:14;67.47;;;22.55;;
76023;SDS011;64719;52.124;6.226;2023-05-10T05:57:41;65.60;;;22.58;;
76023;SDS011;64719;52.124;6.226;2023-05-10T06:00:07;68.03;;;23.63;;
76023;SDS011;64719;52.124;6.226;2023-05-10T06:02:36;72.55;;;23.08;;
76023;SDS011;64719;52.124;6.226;2023-05-10T06:05:03;68.97;;;23.02;;
76023;SDS011;64719;52.124;6.226;2023-05-10T06:07:30;72.80;;;22.13;;
76023;SDS011;64719;52.124;6.226;2023-05-10T06:09:56;70.93;;;22.38;;
76023;SDS011;64719;52.124;6.226;2023-05-10T06:12:23;70.85;;;23.05;;
76023;SDS011;64719;52.124;6.226;2023-05-10T06:14:50;65.68;;;22.45;;
76023;SDS011;64719;52.124;6.226;2023-05-10T06:17:16;58.85;;;22.25;;
76023;SDS011;64719;52.124;6.226;2023-05-10T06:19:44;61.28;;;20.65;;
76023;SDS011;64719;52.124;6.226;2023-05-10T06:22:10;58.58;;;19.83;;
76023;SDS011;64719;52.124;6.226;2023-05-10T06:24:37;51.58;;;19.55;;
76023;SDS011;64719;52.124;6.226;2023-05-10T06:27:03;44.97;;;18.38;;
76023;SDS011;64719;52.124;6.226;2023-05-10T06:29:30;50.75;;;19.02;;
76023;SDS011;64719;52.124;6.226;2023-05-10T06:31:56;43.97;;;19.33;;
76023;SDS011;64719;52.124;6.226;2023-05-10T06:34:23;48.75;;;18.20;;
76023;SDS011;64719;52.124;6.226;2023-05-10T06:36:51;46.30;;;18.80;;
76023;SDS011;64719;52.124;6.226;2023-05-10T06:39:18;43.97;;;17.27;;
76023;SDS011;64719;52.124;6.226;2023-05-10T06:41:44;52.40;;;20.30;;
76023;SDS011;64719;52.124;6.226;2023-05-10T06:44:11;49.83;;;17.88;;
76023;SDS011;64719;52.124;6.226;2023-05-10T06:46:37;53.78;;;19.92;;
76023;SDS011;64719;52.124;6.226;2023-05-10T06:49:04;53.72;;;19.27;;
76023;SDS011;64719;52.124;6.226;2023-05-10T06:51:30;45.50;;;17.88;;
76023;SDS011;64719;52.124;6.226;2023-05-10T06:53:59;54.88;;;18.00;;
76023;SDS011;64719;52.124;6.226;2023-05-10T06:56:26;56.17;;;19.05;;
76023;SDS011;64719;52.124;6.226;2023-05-10T06:58:52;49.60;;;19.23;;
76023;SDS011;64719;52.124;6.226;2023-05-10T07:01:19;47.03;;;18.98;;
76023;SDS011;64719;52.124;6.226;2023-05-10T07:03:45;48.15;;;17.77;;
76023;SDS011;64719;52.124;6.226;2023-05-10T07:06:12;49.35;;;18.13;;
76023;SDS011;64719;52.124;6.226;2023-05-10T07:08:38;47.95;;;19.70;;
76023;SDS011;64719;52.124;6.226;2023-05-10T07:11:06;46.30;;;17.88;;
76023;SDS011;64719;52.124;6.226;2023-05-10T07:13:33;46.35;;;18.58;;
76023;SDS011;64719;52.124;6.226;2023-05-10T07:16:01;47.72;;;19.92;;
76023;SDS011;64719;52.124;6.226;2023-05-10T07:18:28;54.40;;;20.35;;
76023;SDS011;64719;52.124;6.226;2023-05-10T07:20:54;53.28;;;20.00;;
76023;SDS011;64719;52.124;6.226;2023-05-10T07:23:21;57.40;;;19.85;;
76023;SDS011;64719;52.124;6.226;2023-05-10T07:25:47;57.78;;;22.00;;
76023;SDS011;64719;52.124;6.226;2023-05-10T07:28:16;62.80;;;24.38;;
76023;SDS011;64719;52.124;6.226;2023-05-10T07:30:42;67.53;;;22.75;;
76023;SDS011;64719;52.124;6.226;2023-05-10T07:33:10;66.60;;;22.17;;
76023;SDS011;64719;52.124;6.226;2023-05-10T07:35:38;64.78;;;22.63;;
76023;SDS011;64719;52.124;6.226;2023-05-10T07:38:05;64.00;;;22.10;;
76023;SDS011;64719;52.124;6.226;2023-05-10T07:40:31;71.72;;;22.75;;
76023;SDS011;64719;52.124;6.226;2023-05-10T07:42:58;72.72;;;24.13;;
76023;SDS011;64719;52.124;6.226;2023-05-10T07:45:27;69.10;;;23.88;;
76023;SDS011;64719;52.124;6.226;2023-05-10T07:47:54;65.85;;;22.15;;
76023;SDS011;64719;52.124;6.226;2023-05-10T07:50:20;63.92;;;22.40;;
76023;SDS011;64719;52.124;6.226;2023-05-10T07:52:47;77.22;;;22.90;;
76023;SDS011;64719;52.124;6.226;2023-05-10T07:55:14;64.60;;;22.58;;
76023;SDS011;64719;52.124;6.226;2023-05-10T07:57:41;67.28;;;22.55;;
76023;SDS011;64719;52.124;6.226;2023-05-10T08:00:08;76.20;;;22.92;;
76023;SDS011;64719;52.124;6.226;2023-05-10T08:02:39;72.78;;;22.45;;
76023;SDS011;64719;52.124;6.226;2023-05-10T08:05:07;70.85;;;22.10;;
76023;SDS011;64719;52.124;6.226;2023-05-10T08:07:33;58.72;;;21.50;;
76023;SDS011;64719;52.124;6.226;2023-05-10T08:10:00;56.72;;;21.40;;
76023;SDS011;64719;52.124;6.226;2023-05-10T08:12:26;60.08;;;20.83;;
76023;SDS011;64719;52.124;6.226;2023-05-10T08:14:53;45.55;;;19.45;;
76023;SDS011;64719;52.124;6.226;2023-05-10T08:17:19;54.40;;;19.52;;
76023;SDS011;64719;52.124;6.226;2023-05-10T08:19:47;54.75;;;19.02;;
76023;SDS011;64719;52.124;6.226;2023-05-10T08:22:14;49.00;;;19.70;;
76023;SDS011;64719;52.124;6.226;2023-05-10T08:24:40;50.08;;;17.70;;
76023;SDS011;64719;52.124;6.226;2023-05-10T08:27:07;49.40;;;18.08;;
76023;SDS011;64719;52.124;6.226;2023-05-10T08:29:33;41.72;;;17.70;;
76023;SDS011;64719;52.124;6.226;2023-05-10T08:32:00;45.53;;;17.02;;
76023;SDS011;64719;52.124;6.226;2023-05-10T08:34:27;40.65;;;16.50;;
76023;SDS011;64719;52.124;6.226;2023-05-10T08:36:54;49.58;;;17.00;;
76023;SDS011;64719;52.124;6.226;2023-05-10T08:39:21;42.67;;;14.82;;
76023;SDS011;64719;52.124;6.226;2023-05-10T08:41:48;40.72;;;14.73;;
76023;SDS011;64719;52.124;6.226;2023-05-10T08:44:17;47.53;;;15.95;;
76023;SDS011;64719;52.124;6.226;2023-05-10T08:46:46;42.67;;;16.10;;
76023;SDS011;64719;52.124;6.226;2023-05-10T08:49:13;38.42;;;14.55;;
76023;SDS011;64719;52.124;6.226;2023-05-10T08:51:44;38.95;;;14.27;;
76023;SDS011;64719;52.124;6.226;2023-05-10T08:54:17;38.92;;;16.00;;
76023;SDS011;64719;52.124;6.226;2023-05-10T08:56:43;35.13;;;15.80;;
76023;SDS011;64719;52.124;6.226;2023-05-10T08:59:10;34.58;;;13.93;;
76023;SDS011;64719;52.124;6.226;2023-05-10T09:01:39;38.10;;;14.70;;
76023;SDS011;64719;52.124;6.226;2023-05-10T09:04:06;40.15;;;16.25;;
76023;SDS011;64719;52.124;6.226;2023-05-10T09:06:33;39.40;;;16.50;;
76023;SDS011;64719;52.124;6.226;2023-05-10T09:08:59;36.33;;;14.82;;
76023;SDS011;64719;52.124;6.226;2023-05-10T09:11:29;38.05;;;15.68;;
76023;SDS011;64719;52.124;6.226;2023-05-10T09:13:56;42.58;;;16.08;;
76023;SDS011;64719;52.124;6.226;2023-05-10T09:16:23;35.83;;;14.25;;
76023;SDS011;64719;52.124;6.226;2023-05-10T09:18:50;37.67;;;14.55;;
76023;SDS011;64719;52.124;6.226;2023-05-10T09:21:16;27.58;;;12.55;;
76023;SDS011;64719;52.124;6.226;2023-05-10T09:23:43;28.77;;;14.13;;
76023;SDS011;64719;52.124;6.226;2023-05-10T09:26:10;30.15;;;13.00;;
76023;SDS011;64719;52.124;6.226;2023-05-10T09:28:50;28.50;;;12.60;;
76023;SDS011;64719;52.124;6.226;2023-05-10T09:31:17;27.77;;;12.00;;
76023;SDS011;64719;52.124;6.226;2023-05-10T09:33:44;26.65;;;11.98;;
76023;SDS011;64719;52.124;6.226;2023-05-10T09:36:11;25.10;;;11.98;;
76023;SDS011;64719;52.124;6.226;2023-05-10T09:38:44;26.35;;;12.13;;
76023;SDS011;64719;52.124;6.226;2023-05-10T09:41:15;24.60;;;11.82;;
76023;SDS011;64719;52.124;6.226;2023-05-10T09:43:42;22.00;;;11.55;;
76023;SDS011;64719;52.124;6.226;2023-05-10T09:46:10;22.40;;;11.85;;
76023;SDS011;64719;52.124;6.226;2023-05-10T09:51:07;23.83;;;11.55;;
76023;SDS011;64719;52.124;6.226;2023-05-10T09:53:33;24.85;;;11.77;;
76023;SDS011;64719;52.124;6.226;2023-05-10T09:56:00;24.20;;;12.15;;
76023;SDS011;64719;52.124;6.226;2023-05-10T09:58:26;26.17;;;11.25;;
76023;SDS011;64719;52.124;6.226;2023-05-10T10:00:53;19.33;;;9.50;;
76023;SDS011;64719;52.124;6.226;2023-05-10T10:03:21;21.65;;;10.55;;
76023;SDS011;64719;52.124;6.226;2023-05-10T10:05:49;20.55;;;10.20;;
76023;SDS011;64719;52.124;6.226;2023-05-10T10:08:17;17.63;;;8.52;;
76023;SDS011;64719;52.124;6.226;2023-05-10T10:10:43;19.80;;;9.65;;
76023;SDS011;64719;52.124;6.226;2023-05-10T10:13:11;17.48;;;9.13;;
76023;SDS011;64719;52.124;6.226;2023-05-10T10:15:37;19.50;;;9.82;;
76023;SDS011;64719;52.124;6.226;2023-05-10T10:18:04;16.95;;;8.82;;
76023;SDS011;64719;52.124;6.226;2023-05-10T10:20:32;16.65;;;8.85;;
76023;SDS011;64719;52.124;6.226;2023-05-10T10:25:25;20.45;;;9.80;;
76023;SDS011;64719;52.124;6.226;2023-05-10T10:28:08;17.50;;;9.77;;
76023;SDS011;64719;52.124;6.226;2023-05-10T10:30:43;17.00;;;8.40;;
76023;SDS011;64719;52.124;6.226;2023-05-10T10:33:30;18.90;;;9.60;;
76023;SDS011;64719;52.124;6.226;2023-05-10T10:36:15;17.80;;;9.20;;
76023;SDS011;64719;52.124;6.226;2023-05-10T10:38:54;15.02;;;8.80;;
76023;SDS011;64719;52.124;6.226;2023-05-10T10:41:28;15.48;;;8.60;;
76023;SDS011;64719;52.124;6.226;2023-05-10T10:47:04;13.52;;;8.30;;
76023;SDS011;64719;52.124;6.226;2023-05-10T10:49:37;16.83;;;8.65;;
76023;SDS011;64719;52.124;6.226;2023-05-10T10:52:20;14.98;;;8.55;;
76023;SDS011;64719;52.124;6.226;2023-05-10T10:54:51;14.43;;;9.50;;
76023;SDS011;64719;52.124;6.226;2023-05-10T10:57:18;17.35;;;9.57;;
76023;SDS011;64719;52.124;6.226;2023-05-10T10:59:46;17.92;;;9.52;;
76023;SDS011;64719;52.124;6.226;2023-05-10T11:05:22;17.48;;;10.05;;
76023;SDS011;64719;52.124;6.226;2023-05-10T11:07:52;18.08;;;9.80;;
76023;SDS011;64719;52.124;6.226;2023-05-10T11:10:19;16.67;;;10.15;;
76023;SDS011;64719;52.124;6.226;2023-05-10T11:12:53;16.65;;;9.38;;
76023;SDS011;64719;52.124;6.226;2023-05-10T11:15:28;19.50;;;10.95;;
76023;SDS011;64719;52.124;6.226;2023-05-10T11:17:56;18.45;;;9.55;;
76023;SDS011;64719;52.124;6.226;2023-05-10T11:20:22;18.92;;;9.93;;
76023;SDS011;64719;52.124;6.226;2023-05-10T11:22:55;15.40;;;8.90;;
76023;SDS011;64719;52.124;6.226;2023-05-10T11:27:53;16.77;;;8.40;;
76023;SDS011;64719;52.124;6.226;2023-05-10T11:30:19;16.77;;;9.07;;
76023;SDS011;64719;52.124;6.226;2023-05-10T11:32:46;16.75;;;10.00;;
76023;SDS011;64719;52.124;6.226;2023-05-10T11:35:22;14.95;;;8.25;;
76023;SDS011;64719;52.124;6.226;2023-05-10T11:37:48;18.25;;;10.07;;
76023;SDS011;64719;52.124;6.226;2023-05-10T11:40:16;16.70;;;9.38;;
76023;SDS011;64719;52.124;6.226;2023-05-10T11:42:43;15.75;;;9.40;;
76023;SDS011;64719;52.124;6.226;2023-05-10T11:45:10;15.75;;;9.15;;
76023;SDS011;64719;52.124;6.226;2023-05-10T11:47:37;14.05;;;8.65;;
76023;SDS011;64719;52.124;6.226;2023-05-10T11:50:06;16.48;;;8.82;;
76023;SDS011;64719;52.124;6.226;2023-05-10T11:52:35;13.85;;;8.13;;
76023;SDS011;64719;52.124;6.226;2023-05-10T11:55:02;15.77;;;8.35;;
76023;SDS011;64719;52.124;6.226;2023-05-10T11:57:30;14.10;;;8.77;;
76023;SDS011;64719;52.124;6.226;2023-05-10T11:59:57;14.88;;;8.63;;
76023;SDS011;64719;52.124;6.226;2023-05-10T12:02:24;12.02;;;7.50;;
76023;SDS011;64719;52.124;6.226;2023-05-10T12:04:51;14.02;;;8.15;;
76023;SDS011;64719;52.124;6.226;2023-05-10T12:07:18;11.40;;;7.20;;
76023;SDS011;64719;52.124;6.226;2023-05-10T12:09:44;13.70;;;7.43;;
76023;SDS011;64719;52.124;6.226;2023-05-10T12:12:36;9.95;;;5.68;;
76023;SDS011;64719;52.124;6.226;2023-05-10T12:15:04;9.45;;;6.03;;
76023;SDS011;64719;52.124;6.226;2023-05-10T12:17:32;9.70;;;5.53;;
76023;SDS011;64719;52.124;6.226;2023-05-10T12:19:59;8.10;;;5.32;;
76023;SDS011;64719;52.124;6.226;2023-05-10T12:22:38;6.25;;;4.50;;
76023;SDS011;64719;52.124;6.226;2023-05-10T12:25:05;6.97;;;4.15;;
76023;SDS011;64719;52.124;6.226;2023-05-10T12:27:35;7.18;;;4.68;;
76023;SDS011;64719;52.124;6.226;2023-05-10T12:30:02;6.13;;;4.35;;
76023;SDS011;64719;52.124;6.226;2023-05-10T12:32:39;5.35;;;3.25;;
76023;SDS011;64719;52.124;6.226;2023-05-10T12:35:06;5.43;;;3.78;;
76023;SDS011;64719;52.124;6.226;2023-05-10T12:37:33;5.40;;;3.20;;
76023;SDS011;64719;52.124;6.226;2023-05-10T12:40:04;5.78;;;3.72;;
76023;SDS011;64719;52.124;6.226;2023-05-10T12:42:33;6.63;;;4.30;;
76023;SDS011;64719;52.124;6.226;2023-05-10T12:45:01;5.82;;;4.18;;
76023;SDS011;64719;52.124;6.226;2023-05-10T12:47:28;6.18;;;4.10;;
76023;SDS011;64719;52.124;6.226;2023-05-10T12:49:55;6.63;;;3.75;;
76023;SDS011;64719;52.124;6.226;2023-05-10T12:52:22;5.90;;;3.95;;
76023;SDS011;64719;52.124;6.226;2023-05-10T12:54:48;6.90;;;4.45;;
76023;SDS011;64719;52.124;6.226;2023-05-10T12:57:15;7.68;;;4.35;;
76023;SDS011;64719;52.124;6.226;2023-05-10T12:59:41;5.82;;;4.03;;
76023;SDS011;64719;52.124;6.226;2023-05-10T13:02:09;5.60;;;4.20;;
76023;SDS011;64719;52.124;6.226;2023-05-10T13:04:36;7.50;;;4.55;;
76023;SDS011;64719;52.124;6.226;2023-05-10T13:07:04;5.97;;;4.25;;
76023;SDS011;64719;52.124;6.226;2023-05-10T13:09:31;7.07;;;4.47;;
76023;SDS011;64719;52.124;6.226;2023-05-10T13:11:58;6.07;;;4.05;;
76023;SDS011;64719;52.124;6.226;2023-05-10T13:14:24;7.55;;;4.40;;
76023;SDS011;64719;52.124;6.226;2023-05-10T13:16:53;7.90;;;4.90;;
76023;SDS011;64719;52.124;6.226;2023-05-10T13:19:21;6.88;;;4.97;;
76023;SDS011;64719;52.124;6.226;2023-05-10T13:21:47;8.57;;;5.18;;
76023;SDS011;64719;52.124;6.226;2023-05-10T13:24:14;7.57;;;4.75;;
76023;SDS011;64719;52.124;6.226;2023-05-10T13:26:40;6.57;;;4.30;;
76023;SDS011;64719;52.124;6.226;2023-05-10T13:29:07;7.60;;;4.03;;
76023;SDS011;64719;52.124;6.226;2023-05-10T13:31:33;7.25;;;4.72;;
76023;SDS011;64719;52.124;6.226;2023-05-10T13:34:00;6.35;;;4.13;;
76023;SDS011;64719;52.124;6.226;2023-05-10T13:36:28;6.82;;;4.70;;
76023;SDS011;64719;52.124;6.226;2023-05-10T13:38:55;9.98;;;4.47;;
76023;SDS011;64719;52.124;6.226;2023-05-10T13:41:21;7.63;;;4.90;;
76023;SDS011;64719;52.124;6.226;2023-05-10T13:43:48;6.45;;;4.13;;
76023;SDS011;64719;52.124;6.226;2023-05-10T13:46:15;7.85;;;4.85;;
76023;SDS011;64719;52.124;6.226;2023-05-10T13:48:41;6.18;;;4.18;;
76023;SDS011;64719;52.124;6.226;2023-05-10T13:51:08;6.85;;;4.25;;
76023;SDS011;64719;52.124;6.226;2023-05-10T13:53:35;6.18;;;4.63;;
76023;SDS011;64719;52.124;6.226;2023-05-10T13:56:02;7.43;;;4.88;;
76023;SDS011;64719;52.124;6.226;2023-05-10T13:58:29;8.15;;;4.78;;
76023;SDS011;64719;52.124;6.226;2023-05-10T14:00:55;7.63;;;4.80;;
76023;SDS011;64719;52.124;6.226;2023-05-10T14:03:22;7.28;;;4.45;;
76023;SDS011;64719;52.124;6.226;2023-05-10T14:05:48;8.88;;;5.38;;
76023;SDS011;64719;52.124;6.226;2023-05-10T14:08:15;9.50;;;4.75;;
76023;SDS011;64719;52.124;6.226;2023-05-10T14:10:43;7.28;;;4.78;;
76023;SDS011;64719;52.124;6.226;2023-05-10T14:13:10;7.13;;;5.20;;
76023;SDS011;64719;52.124;6.226;2023-05-10T14:15:37;7.63;;;4.65;;
76023;SDS011;64719;52.124;6.226;2023-05-10T14:18:03;7.88;;;4.95;;
76023;SDS011;64719;52.124;6.226;2023-05-10T14:20:30;6.93;;;4.80;;
76023;SDS011;64719;52.124;6.226;2023-05-10T14:22:58;9.48;;;5.00;;
76023;SDS011;64719;52.124;6.226;2023-05-10T14:25:25;9.75;;;4.88;;
76023;SDS011;64719;52.124;6.226;2023-05-10T14:27:53;9.13;;;5.07;;
76023;SDS011;64719;52.124;6.226;2023-05-10T14:30:20;7.40;;;4.68;;
76023;SDS011;64719;52.124;6.226;2023-05-10T14:32:46;9.00;;;5.10;;
76023;SDS011;64719;52.124;6.226;2023-05-10T14:35:13;7.63;;;4.88;;
76023;SDS011;64719;52.124;6.226;2023-05-10T14:37:40;7.25;;;4.60;;
76023;SDS011;64719;52.124;6.226;2023-05-10T14:40:06;7.57;;;5.10;;
76023;SDS011;64719;52.124;6.226;2023-05-10T14:45:01;7.75;;;5.20;;
76023;SDS011;64719;52.124;6.226;2023-05-10T14:47:28;7.63;;;5.28;;
76023;SDS011;64719;52.124;6.226;2023-05-10T14:49:55;10.13;;;6.03;;
76023;SDS011;64719;52.124;6.226;2023-05-10T14:52:21;8.15;;;5.25;;
76023;SDS011;64719;52.124;6.226;2023-05-10T14:54:48;8.77;;;5.75;;